sensor_id;sensor_type;location;lat;lon;timestamp;P1;durP1;ratioP1;P2;durP2;ratioP2
55692;SDS011;41590;53.366;5.212;2022-07-29T00:00:18;3.45;;;0.90;;
55692;SDS011;41590;53.366;5.212;2022-07-29T00:02:44;5.10;;;0.88;;
55692;SDS011;41590;53.366;5.212;2022-07-29T00:05:16;2.47;;;0.73;;
55692;SDS011;41590;53.366;5.212;2022-07-29T00:13:09;1.73;;;0.55;;
55692;SDS011;41590;53.366;5.212;2022-07-29T00:15:45;3.05;;;0.77;;
55692;SDS011;41590;53.366;5.212;2022-07-29T00:18:11;1.58;;;0.60;;
55692;SDS011;41590;53.366;5.212;2022-07-29T00:20:36;3.70;;;0.70;;
55692;SDS011;41590;53.366;5.212;2022-07-29T00:23:02;2.25;;;0.93;;
55692;SDS011;41590;53.366;5.212;2022-07-29T00:25:28;3.25;;;0.70;;
55692;SDS011;41590;53.366;5.212;2022-07-29T00:27:54;3.38;;;0.85;;
55692;SDS011;41590;53.366;5.212;2022-07-29T00:30:22;3.58;;;0.73;;
55692;SDS011;41590;53.366;5.212;2022-07-29T00:32:51;3.28;;;0.80;;
55692;SDS011;41590;53.366;5.212;2022-07-29T00:38:06;1.67;;;0.68;;
55692;SDS011;41590;53.366;5.212;2022-07-29T00:40:40;5.65;;;1.35;;
55692;SDS011;41590;53.366;5.212;2022-07-29T00:43:07;3.47;;;1.30;;
55692;SDS011;41590;53.366;5.212;2022-07-29T00:45:35;3.85;;;0.60;;
55692;SDS011;41590;53.366;5.212;2022-07-29T00:48:10;1.73;;;0.80;;
55692;SDS011;41590;53.366;5.212;2022-07-29T00:50:36;3.45;;;0.95;;
55692;SDS011;41590;53.366;5.212;2022-07-29T00:53:06;4.07;;;1.00;;
55692;SDS011;41590;53.366;5.212;2022-07-29T00:55:35;2.70;;;0.90;;
55692;SDS011;41590;53.366;5.212;2022-07-29T00:58:12;2.08;;;0.80;;
55692;SDS011;41590;53.366;5.212;2022-07-29T01:00:39;2.00;;;0.80;;
55692;SDS011;41590;53.366;5.212;2022-07-29T01:03:06;4.32;;;0.65;;
55692;SDS011;41590;53.366;5.212;2022-07-29T01:05:33;1.98;;;0.70;;
55692;SDS011;41590;53.366;5.212;2022-07-29T01:10:31;2.90;;;0.77;;
55692;SDS011;41590;53.366;5.212;2022-07-29T01:13:02;3.63;;;0.80;;
55692;SDS011;41590;53.366;5.212;2022-07-29T01:15:28;3.30;;;0.98;;
55692;SDS011;41590;53.366;5.212;2022-07-29T01:29:29;4.60;;;0.93;;
55692;SDS011;41590;53.366;5.212;2022-07-29T01:32:18;4.40;;;0.93;;
55692;SDS011;41590;53.366;5.212;2022-07-29T01:40:40;3.75;;;1.10;;
55692;SDS011;41590;53.366;5.212;2022-07-29T01:43:27;3.15;;;1.00;;
55692;SDS011;41590;53.366;5.212;2022-07-29T01:46:02;4.43;;;0.93;;
55692;SDS011;41590;53.366;5.212;2022-07-29T01:51:07;6.32;;;0.82;;
55692;SDS011;41590;53.366;5.212;2022-07-29T01:56:14;6.85;;;1.00;;
55692;SDS011;41590;53.366;5.212;2022-07-29T01:58:43;4.22;;;1.00;;
55692;SDS011;41590;53.366;5.212;2022-07-29T02:01:11;4.13;;;0.88;;
55692;SDS011;41590;53.366;5.212;2022-07-29T02:03:38;5.50;;;1.35;;
55692;SDS011;41590;53.366;5.212;2022-07-29T02:06:07;3.92;;;0.80;;
55692;SDS011;41590;53.366;5.212;2022-07-29T02:11:31;7.13;;;1.13;;
55692;SDS011;41590;53.366;5.212;2022-07-29T02:14:03;2.90;;;0.75;;
55692;SDS011;41590;53.366;5.212;2022-07-29T02:16:31;4.65;;;0.85;;
55692;SDS011;41590;53.366;5.212;2022-07-29T02:18:59;3.88;;;0.90;;
55692;SDS011;41590;53.366;5.212;2022-07-29T02:21:27;4.90;;;1.05;;
55692;SDS011;41590;53.366;5.212;2022-07-29T02:23:59;3.20;;;0.80;;
55692;SDS011;41590;53.366;5.212;2022-07-29T02:29:35;3.53;;;0.80;;
55692;SDS011;41590;53.366;5.212;2022-07-29T02:32:10;4.35;;;1.60;;
55692;SDS011;41590;53.366;5.212;2022-07-29T02:34:40;2.78;;;0.80;;
55692;SDS011;41590;53.366;5.212;2022-07-29T02:37:09;3.25;;;1.10;;
55692;SDS011;41590;53.366;5.212;2022-07-29T02:39:35;6.53;;;0.90;;
55692;SDS011;41590;53.366;5.212;2022-07-29T02:42:11;2.58;;;1.00;;
55692;SDS011;41590;53.366;5.212;2022-07-29T02:44:39;4.95;;;1.40;;
55692;SDS011;41590;53.366;5.212;2022-07-29T02:49:57;2.75;;;0.93;;
55692;SDS011;41590;53.366;5.212;2022-07-29T02:52:59;2.97;;;0.80;;
55692;SDS011;41590;53.366;5.212;2022-07-29T03:01:15;3.35;;;1.00;;
55692;SDS011;41590;53.366;5.212;2022-07-29T03:03:51;5.13;;;1.00;;
55692;SDS011;41590;53.366;5.212;2022-07-29T03:08:54;3.10;;;0.80;;
55692;SDS011;41590;53.366;5.212;2022-07-29T03:14:02;2.38;;;0.85;;
55692;SDS011;41590;53.366;5.212;2022-07-29T03:16:29;2.67;;;0.90;;
55692;SDS011;41590;53.366;5.212;2022-07-29T03:19:04;5.03;;;1.10;;
55692;SDS011;41590;53.366;5.212;2022-07-29T03:21:30;3.90;;;1.00;;
55692;SDS011;41590;53.366;5.212;2022-07-29T03:26:55;3.22;;;0.95;;
55692;SDS011;41590;53.366;5.212;2022-07-29T03:29:27;6.47;;;1.10;;
55692;SDS011;41590;53.366;5.212;2022-07-29T03:32:04;5.90;;;1.20;;
55692;SDS011;41590;53.366;5.212;2022-07-29T03:40:03;5.20;;;0.90;;
55692;SDS011;41590;53.366;5.212;2022-07-29T03:42:32;7.10;;;1.20;;
55692;SDS011;41590;53.366;5.212;2022-07-29T03:47:57;3.60;;;1.05;;
55692;SDS011;41590;53.366;5.212;2022-07-29T03:50:28;2.65;;;0.95;;
55692;SDS011;41590;53.366;5.212;2022-07-29T03:53:03;6.85;;;1.65;;
55692;SDS011;41590;53.366;5.212;2022-07-29T03:55:32;6.05;;;1.63;;
55692;SDS011;41590;53.366;5.212;2022-07-29T03:58:03;3.95;;;1.23;;
55692;SDS011;41590;53.366;5.212;2022-07-29T04:00:39;5.47;;;1.23;;
55692;SDS011;41590;53.366;5.212;2022-07-29T04:06:05;4.20;;;1.25;;
55692;SDS011;41590;53.366;5.212;2022-07-29T04:08:33;6.13;;;1.50;;
55692;SDS011;41590;53.366;5.212;2022-07-29T04:11:09;4.20;;;1.17;;
55692;SDS011;41590;53.366;5.212;2022-07-29T04:13:45;5.50;;;1.70;;
55692;SDS011;41590;53.366;5.212;2022-07-29T04:16:17;6.45;;;1.90;;
55692;SDS011;41590;53.366;5.212;2022-07-29T04:21:12;4.82;;;1.10;;
55692;SDS011;41590;53.366;5.212;2022-07-29T04:23:37;12.90;;;2.45;;
55692;SDS011;41590;53.366;5.212;2022-07-29T04:26:03;5.43;;;1.70;;
55692;SDS011;41590;53.366;5.212;2022-07-29T04:28:42;6.82;;;1.45;;
55692;SDS011;41590;53.366;5.212;2022-07-29T04:33:42;7.50;;;1.48;;
55692;SDS011;41590;53.366;5.212;2022-07-29T04:36:07;3.88;;;1.50;;
55692;SDS011;41590;53.366;5.212;2022-07-29T04:38:38;8.00;;;1.70;;
55692;SDS011;41590;53.366;5.212;2022-07-29T04:41:10;3.95;;;1.00;;
55692;SDS011;41590;53.366;5.212;2022-07-29T04:43:36;5.15;;;1.50;;
55692;SDS011;41590;53.366;5.212;2022-07-29T04:49:18;9.13;;;1.42;;
55692;SDS011;41590;53.366;5.212;2022-07-29T04:54:18;4.15;;;1.15;;
55692;SDS011;41590;53.366;5.212;2022-07-29T04:59:14;5.72;;;1.33;;
55692;SDS011;41590;53.366;5.212;2022-07-29T05:01:40;9.50;;;1.40;;
55692;SDS011;41590;53.366;5.212;2022-07-29T05:04:05;3.53;;;1.38;;
55692;SDS011;41590;53.366;5.212;2022-07-29T05:06:33;6.78;;;1.58;;
55692;SDS011;41590;53.366;5.212;2022-07-29T05:11:46;4.38;;;1.30;;
55692;SDS011;41590;53.366;5.212;2022-07-29T05:14:20;8.90;;;1.83;;
55692;SDS011;41590;53.366;5.212;2022-07-29T05:16:47;6.43;;;1.50;;
55692;SDS011;41590;53.366;5.212;2022-07-29T05:19:19;6.63;;;1.38;;
55692;SDS011;41590;53.366;5.212;2022-07-29T05:21:44;6.70;;;1.50;;
55692;SDS011;41590;53.366;5.212;2022-07-29T05:27:02;5.05;;;1.45;;
55692;SDS011;41590;53.366;5.212;2022-07-29T05:29:28;8.27;;;1.30;;
55692;SDS011;41590;53.366;5.212;2022-07-29T05:31:54;8.52;;;1.55;;
55692;SDS011;41590;53.366;5.212;2022-07-29T05:34:21;5.00;;;1.42;;
55692;SDS011;41590;53.366;5.212;2022-07-29T05:36:46;4.57;;;1.70;;
55692;SDS011;41590;53.366;5.212;2022-07-29T05:39:12;3.70;;;1.20;;
55692;SDS011;41590;53.366;5.212;2022-07-29T05:41:38;6.28;;;1.33;;
55692;SDS011;41590;53.366;5.212;2022-07-29T05:44:04;4.13;;;1.25;;
55692;SDS011;41590;53.366;5.212;2022-07-29T05:46:31;5.78;;;1.38;;
55692;SDS011;41590;53.366;5.212;2022-07-29T05:49:03;7.00;;;1.65;;
55692;SDS011;41590;53.366;5.212;2022-07-29T05:54:23;5.68;;;1.20;;
55692;SDS011;41590;53.366;5.212;2022-07-29T06:02:09;7.22;;;1.30;;
55692;SDS011;41590;53.366;5.212;2022-07-29T06:04:37;8.32;;;1.52;;
55692;SDS011;41590;53.366;5.212;2022-07-29T06:07:03;11.07;;;1.48;;
55692;SDS011;41590;53.366;5.212;2022-07-29T06:09:43;9.23;;;1.38;;
55692;SDS011;41590;53.366;5.212;2022-07-29T06:12:09;7.82;;;1.27;;
55692;SDS011;41590;53.366;5.212;2022-07-29T06:14:43;4.13;;;1.05;;
55692;SDS011;41590;53.366;5.212;2022-07-29T06:17:08;7.43;;;1.50;;
55692;SDS011;41590;53.366;5.212;2022-07-29T06:19:38;6.97;;;1.30;;
55692;SDS011;41590;53.366;5.212;2022-07-29T06:22:04;11.32;;;1.67;;
55692;SDS011;41590;53.366;5.212;2022-07-29T06:24:40;9.90;;;1.63;;
55692;SDS011;41590;53.366;5.212;2022-07-29T06:29:43;6.95;;;1.40;;
55692;SDS011;41590;53.366;5.212;2022-07-29T06:32:08;6.43;;;1.05;;
55692;SDS011;41590;53.366;5.212;2022-07-29T06:34:39;8.85;;;1.30;;
55692;SDS011;41590;53.366;5.212;2022-07-29T06:39:47;8.15;;;1.30;;
55692;SDS011;41590;53.366;5.212;2022-07-29T06:42:24;6.18;;;1.30;;
55692;SDS011;41590;53.366;5.212;2022-07-29T06:45:01;5.75;;;1.10;;
55692;SDS011;41590;53.366;5.212;2022-07-29T06:47:36;3.25;;;0.85;;
55692;SDS011;41590;53.366;5.212;2022-07-29T06:55:08;6.22;;;1.40;;
55692;SDS011;41590;53.366;5.212;2022-07-29T06:57:43;5.65;;;1.25;;
55692;SDS011;41590;53.366;5.212;2022-07-29T07:03:10;8.98;;;2.28;;
55692;SDS011;41590;53.366;5.212;2022-07-29T07:05:45;5.28;;;1.50;;
55692;SDS011;41590;53.366;5.212;2022-07-29T07:08:11;5.38;;;1.65;;
55692;SDS011;41590;53.366;5.212;2022-07-29T07:10:44;7.82;;;1.30;;
55692;SDS011;41590;53.366;5.212;2022-07-29T07:13:24;6.10;;;1.40;;
55692;SDS011;41590;53.366;5.212;2022-07-29T07:15:57;6.28;;;1.50;;
55692;SDS011;41590;53.366;5.212;2022-07-29T07:18:22;2.58;;;1.00;;
55692;SDS011;41590;53.366;5.212;2022-07-29T07:20:49;4.35;;;1.25;;
55692;SDS011;41590;53.366;5.212;2022-07-29T07:23:22;3.17;;;0.95;;
55692;SDS011;41590;53.366;5.212;2022-07-29T07:29:16;6.53;;;1.10;;
55692;SDS011;41590;53.366;5.212;2022-07-29T07:34:14;8.55;;;1.60;;
55692;SDS011;41590;53.366;5.212;2022-07-29T07:44:53;8.80;;;1.55;;
55692;SDS011;41590;53.366;5.212;2022-07-29T07:49:49;5.95;;;1.02;;
55692;SDS011;41590;53.366;5.212;2022-07-29T07:52:19;4.53;;;1.30;;
55692;SDS011;41590;53.366;5.212;2022-07-29T07:54:46;5.40;;;1.20;;
55692;SDS011;41590;53.366;5.212;2022-07-29T07:57:13;6.13;;;1.17;;
55692;SDS011;41590;53.366;5.212;2022-07-29T07:59:41;5.72;;;1.42;;
55692;SDS011;41590;53.366;5.212;2022-07-29T08:02:07;7.43;;;1.15;;
55692;SDS011;41590;53.366;5.212;2022-07-29T08:04:52;7.53;;;1.15;;
55692;SDS011;41590;53.366;5.212;2022-07-29T08:10:31;6.88;;;1.90;;
55692;SDS011;41590;53.366;5.212;2022-07-29T08:13:22;6.00;;;1.20;;
55692;SDS011;41590;53.366;5.212;2022-07-29T08:16:03;4.95;;;1.35;;
55692;SDS011;41590;53.366;5.212;2022-07-29T08:18:42;4.50;;;1.85;;
55692;SDS011;41590;53.366;5.212;2022-07-29T08:21:13;5.45;;;1.58;;
55692;SDS011;41590;53.366;5.212;2022-07-29T08:23:40;8.75;;;1.42;;
55692;SDS011;41590;53.366;5.212;2022-07-29T08:26:24;4.10;;;1.30;;
55692;SDS011;41590;53.366;5.212;2022-07-29T08:28:51;4.78;;;2.00;;
55692;SDS011;41590;53.366;5.212;2022-07-29T08:33:59;7.03;;;1.52;;
55692;SDS011;41590;53.366;5.212;2022-07-29T08:36:33;6.28;;;1.00;;
55692;SDS011;41590;53.366;5.212;2022-07-29T08:39:00;5.43;;;1.20;;
55692;SDS011;41590;53.366;5.212;2022-07-29T08:41:27;7.80;;;1.50;;
55692;SDS011;41590;53.366;5.212;2022-07-29T08:43:56;8.73;;;1.58;;
55692;SDS011;41590;53.366;5.212;2022-07-29T08:46:25;6.88;;;1.55;;
55692;SDS011;41590;53.366;5.212;2022-07-29T08:48:51;5.35;;;1.20;;
55692;SDS011;41590;53.366;5.212;2022-07-29T08:51:19;8.13;;;1.25;;
55692;SDS011;41590;53.366;5.212;2022-07-29T08:53:47;8.40;;;1.60;;
55692;SDS011;41590;53.366;5.212;2022-07-29T08:56:18;4.85;;;1.48;;
55692;SDS011;41590;53.366;5.212;2022-07-29T08:58:46;6.32;;;1.40;;
55692;SDS011;41590;53.366;5.212;2022-07-29T09:01:21;7.35;;;1.75;;
55692;SDS011;41590;53.366;5.212;2022-07-29T09:03:49;6.55;;;1.65;;
55692;SDS011;41590;53.366;5.212;2022-07-29T09:06:29;4.40;;;1.52;;
55692;SDS011;41590;53.366;5.212;2022-07-29T09:09:03;5.35;;;2.22;;
55692;SDS011;41590;53.366;5.212;2022-07-29T09:14:23;4.10;;;1.20;;
55692;SDS011;41590;53.366;5.212;2022-07-29T09:16:59;8.88;;;1.77;;
55692;SDS011;41590;53.366;5.212;2022-07-29T09:19:29;8.00;;;1.75;;
55692;SDS011;41590;53.366;5.212;2022-07-29T09:21:56;2.25;;;1.20;;
55692;SDS011;41590;53.366;5.212;2022-07-29T09:24:25;8.93;;;1.52;;
55692;SDS011;41590;53.366;5.212;2022-07-29T09:27:03;3.40;;;1.10;;
55692;SDS011;41590;53.366;5.212;2022-07-29T09:35:25;5.57;;;1.23;;
55692;SDS011;41590;53.366;5.212;2022-07-29T09:37:52;3.90;;;1.17;;
55692;SDS011;41590;53.366;5.212;2022-07-29T09:40:19;5.30;;;1.42;;
55692;SDS011;41590;53.366;5.212;2022-07-29T09:42:48;5.47;;;1.40;;
55692;SDS011;41590;53.366;5.212;2022-07-29T09:45:25;5.35;;;1.80;;
55692;SDS011;41590;53.366;5.212;2022-07-29T09:47:56;5.88;;;1.40;;
55692;SDS011;41590;53.366;5.212;2022-07-29T09:50:40;9.15;;;1.88;;
55692;SDS011;41590;53.366;5.212;2022-07-29T09:53:08;4.85;;;1.33;;
55692;SDS011;41590;53.366;5.212;2022-07-29T09:58:30;9.80;;;1.80;;
55692;SDS011;41590;53.366;5.212;2022-07-29T10:01:03;4.43;;;1.30;;
55692;SDS011;41590;53.366;5.212;2022-07-29T10:06:25;8.02;;;1.38;;
55692;SDS011;41590;53.366;5.212;2022-07-29T10:08:54;8.27;;;1.67;;
55692;SDS011;41590;53.366;5.212;2022-07-29T10:13:51;5.30;;;1.40;;
55692;SDS011;41590;53.366;5.212;2022-07-29T10:16:17;3.58;;;1.15;;
55692;SDS011;41590;53.366;5.212;2022-07-29T10:18:46;3.40;;;1.35;;
55692;SDS011;41590;53.366;5.212;2022-07-29T10:21:23;5.50;;;1.45;;
55692;SDS011;41590;53.366;5.212;2022-07-29T10:26:27;10.80;;;1.83;;
55692;SDS011;41590;53.366;5.212;2022-07-29T10:28:55;4.55;;;1.35;;
55692;SDS011;41590;53.366;5.212;2022-07-29T10:31:29;9.57;;;2.10;;
55692;SDS011;41590;53.366;5.212;2022-07-29T10:43:37;3.97;;;1.30;;
55692;SDS011;41590;53.366;5.212;2022-07-29T10:46:10;9.43;;;1.55;;
55692;SDS011;41590;53.366;5.212;2022-07-29T10:51:55;4.60;;;1.60;;
55692;SDS011;41590;53.366;5.212;2022-07-29T10:54:39;8.48;;;1.98;;
55692;SDS011;41590;53.366;5.212;2022-07-29T10:57:12;8.07;;;1.33;;
55692;SDS011;41590;53.366;5.212;2022-07-29T10:59:42;5.25;;;1.40;;
55692;SDS011;41590;53.366;5.212;2022-07-29T11:05:14;6.70;;;1.63;;
55692;SDS011;41590;53.366;5.212;2022-07-29T11:10:46;5.30;;;1.42;;
55692;SDS011;41590;53.366;5.212;2022-07-29T11:16:31;4.13;;;1.30;;
55692;SDS011;41590;53.366;5.212;2022-07-29T11:19:37;8.10;;;1.77;;
55692;SDS011;41590;53.366;5.212;2022-07-29T11:22:07;2.55;;;1.20;;
55692;SDS011;41590;53.366;5.212;2022-07-29T11:24:35;10.32;;;2.25;;
55692;SDS011;41590;53.366;5.212;2022-07-29T11:30:47;8.05;;;1.90;;
55692;SDS011;41590;53.366;5.212;2022-07-29T11:36:16;6.70;;;1.65;;
55692;SDS011;41590;53.366;5.212;2022-07-29T11:38:42;6.15;;;1.38;;
55692;SDS011;41590;53.366;5.212;2022-07-29T11:41:20;6.38;;;1.75;;
55692;SDS011;41590;53.366;5.212;2022-07-29T11:43:56;6.53;;;1.90;;
55692;SDS011;41590;53.366;5.212;2022-07-29T11:52:24;5.22;;;1.45;;
55692;SDS011;41590;53.366;5.212;2022-07-29T11:55:20;4.70;;;1.55;;
55692;SDS011;41590;53.366;5.212;2022-07-29T11:57:56;7.93;;;1.50;;
55692;SDS011;41590;53.366;5.212;2022-07-29T12:00:29;11.00;;;1.63;;
55692;SDS011;41590;53.366;5.212;2022-07-29T12:03:23;7.53;;;1.60;;
55692;SDS011;41590;53.366;5.212;2022-07-29T12:05:51;8.65;;;1.55;;
55692;SDS011;41590;53.366;5.212;2022-07-29T12:08:20;6.93;;;1.60;;
55692;SDS011;41590;53.366;5.212;2022-07-29T12:10:49;5.47;;;1.13;;
55692;SDS011;41590;53.366;5.212;2022-07-29T12:13:16;6.50;;;1.80;;
55692;SDS011;41590;53.366;5.212;2022-07-29T12:15:53;7.38;;;1.33;;
55692;SDS011;41590;53.366;5.212;2022-07-29T12:18:23;5.82;;;1.60;;
55692;SDS011;41590;53.366;5.212;2022-07-29T12:20:56;5.82;;;1.27;;
55692;SDS011;41590;53.366;5.212;2022-07-29T12:23:28;4.03;;;1.38;;
55692;SDS011;41590;53.366;5.212;2022-07-29T12:25:55;7.45;;;1.45;;
55692;SDS011;41590;53.366;5.212;2022-07-29T12:31:20;7.82;;;1.65;;
55692;SDS011;41590;53.366;5.212;2022-07-29T12:37:27;5.15;;;1.50;;
55692;SDS011;41590;53.366;5.212;2022-07-29T12:42:33;5.88;;;1.20;;
55692;SDS011;41590;53.366;5.212;2022-07-29T12:45:03;5.40;;;1.50;;
55692;SDS011;41590;53.366;5.212;2022-07-29T12:50:15;5.22;;;1.30;;
55692;SDS011;41590;53.366;5.212;2022-07-29T12:58:27;10.55;;;1.65;;
55692;SDS011;41590;53.366;5.212;2022-07-29T13:01:05;7.35;;;1.48;;
55692;SDS011;41590;53.366;5.212;2022-07-29T13:03:42;6.93;;;1.52;;
55692;SDS011;41590;53.366;5.212;2022-07-29T13:09:15;5.07;;;1.17;;
55692;SDS011;41590;53.366;5.212;2022-07-29T13:14:37;7.70;;;1.50;;
55692;SDS011;41590;53.366;5.212;2022-07-29T13:17:07;7.72;;;1.65;;
55692;SDS011;41590;53.366;5.212;2022-07-29T13:26:07;9.50;;;2.10;;
55692;SDS011;41590;53.366;5.212;2022-07-29T13:28:35;6.53;;;1.33;;
55692;SDS011;41590;53.366;5.212;2022-07-29T13:31:02;10.75;;;2.25;;
55692;SDS011;41590;53.366;5.212;2022-07-29T13:33:28;5.40;;;1.42;;
55692;SDS011;41590;53.366;5.212;2022-07-29T13:35:55;6.40;;;1.40;;
55692;SDS011;41590;53.366;5.212;2022-07-29T13:43:55;6.20;;;1.80;;
55692;SDS011;41590;53.366;5.212;2022-07-29T13:46:21;6.72;;;1.45;;
55692;SDS011;41590;53.366;5.212;2022-07-29T13:48:49;8.70;;;1.88;;
55692;SDS011;41590;53.366;5.212;2022-07-29T13:51:15;5.50;;;1.48;;
55692;SDS011;41590;53.366;5.212;2022-07-29T13:53:41;6.25;;;1.60;;
55692;SDS011;41590;53.366;5.212;2022-07-29T13:56:07;5.65;;;1.80;;
55692;SDS011;41590;53.366;5.212;2022-07-29T13:58:33;3.50;;;1.50;;
55692;SDS011;41590;53.366;5.212;2022-07-29T14:00:59;8.25;;;1.77;;
55692;SDS011;41590;53.366;5.212;2022-07-29T14:03:27;6.55;;;1.65;;
55692;SDS011;41590;53.366;5.212;2022-07-29T14:05:53;5.72;;;1.88;;
55692;SDS011;41590;53.366;5.212;2022-07-29T14:08:20;7.93;;;1.90;;
55692;SDS011;41590;53.366;5.212;2022-07-29T14:13:24;5.97;;;1.58;;
55692;SDS011;41590;53.366;5.212;2022-07-29T14:15:50;7.13;;;1.40;;
55692;SDS011;41590;53.366;5.212;2022-07-29T14:18:25;6.18;;;1.50;;
55692;SDS011;41590;53.366;5.212;2022-07-29T14:20:51;5.05;;;1.67;;
55692;SDS011;41590;53.366;5.212;2022-07-29T14:23:19;6.90;;;1.90;;
55692;SDS011;41590;53.366;5.212;2022-07-29T14:25:45;6.13;;;1.10;;
55692;SDS011;41590;53.366;5.212;2022-07-29T14:28:12;7.90;;;1.80;;
55692;SDS011;41590;53.366;5.212;2022-07-29T14:33:06;4.65;;;1.30;;
55692;SDS011;41590;53.366;5.212;2022-07-29T14:35:38;5.63;;;1.50;;
55692;SDS011;41590;53.366;5.212;2022-07-29T14:38:04;5.95;;;1.63;;
55692;SDS011;41590;53.366;5.212;2022-07-29T14:40:30;8.55;;;2.25;;
55692;SDS011;41590;53.366;5.212;2022-07-29T14:42:56;8.20;;;2.15;;
55692;SDS011;41590;53.366;5.212;2022-07-29T14:45:39;9.70;;;3.15;;
55692;SDS011;41590;53.366;5.212;2022-07-29T14:48:21;5.28;;;1.60;;
55692;SDS011;41590;53.366;5.212;2022-07-29T14:53:51;5.97;;;1.70;;
55692;SDS011;41590;53.366;5.212;2022-07-29T14:56:17;6.85;;;1.95;;
55692;SDS011;41590;53.366;5.212;2022-07-29T15:01:15;7.25;;;1.73;;
55692;SDS011;41590;53.366;5.212;2022-07-29T15:03:41;6.32;;;1.90;;
55692;SDS011;41590;53.366;5.212;2022-07-29T15:06:12;7.32;;;1.65;;
55692;SDS011;41590;53.366;5.212;2022-07-29T15:11:07;5.38;;;1.48;;
55692;SDS011;41590;53.366;5.212;2022-07-29T15:13:33;4.72;;;1.70;;
55692;SDS011;41590;53.366;5.212;2022-07-29T15:18:35;9.15;;;1.80;;
55692;SDS011;41590;53.366;5.212;2022-07-29T15:21:02;8.02;;;2.20;;
55692;SDS011;41590;53.366;5.212;2022-07-29T15:23:33;6.90;;;1.58;;
55692;SDS011;41590;53.366;5.212;2022-07-29T15:26:04;9.57;;;2.15;;
55692;SDS011;41590;53.366;5.212;2022-07-29T15:28:30;9.02;;;1.80;;
55692;SDS011;41590;53.366;5.212;2022-07-29T15:30:57;13.48;;;2.40;;
55692;SDS011;41590;53.366;5.212;2022-07-29T15:33:23;7.72;;;1.58;;
55692;SDS011;41590;53.366;5.212;2022-07-29T15:35:50;10.45;;;1.63;;
55692;SDS011;41590;53.366;5.212;2022-07-29T15:38:16;8.23;;;1.95;;
55692;SDS011;41590;53.366;5.212;2022-07-29T15:40:42;6.20;;;1.98;;
55692;SDS011;41590;53.366;5.212;2022-07-29T15:43:08;7.15;;;1.85;;
55692;SDS011;41590;53.366;5.212;2022-07-29T15:45:38;5.65;;;1.73;;
55692;SDS011;41590;53.366;5.212;2022-07-29T15:48:07;5.22;;;1.70;;
55692;SDS011;41590;53.366;5.212;2022-07-29T15:50:34;5.03;;;2.10;;
55692;SDS011;41590;53.366;5.212;2022-07-29T15:53:01;5.63;;;1.83;;
55692;SDS011;41590;53.366;5.212;2022-07-29T15:55:30;5.97;;;2.03;;
55692;SDS011;41590;53.366;5.212;2022-07-29T15:57:56;9.35;;;2.20;;
55692;SDS011;41590;53.366;5.212;2022-07-29T16:02:59;5.72;;;1.90;;
55692;SDS011;41590;53.366;5.212;2022-07-29T16:05:35;6.57;;;2.10;;
55692;SDS011;41590;53.366;5.212;2022-07-29T16:08:01;4.97;;;1.42;;
55692;SDS011;41590;53.366;5.212;2022-07-29T16:10:27;6.53;;;2.05;;
55692;SDS011;41590;53.366;5.212;2022-07-29T16:12:53;6.60;;;2.03;;
55692;SDS011;41590;53.366;5.212;2022-07-29T16:15:34;9.27;;;1.85;;
55692;SDS011;41590;53.366;5.212;2022-07-29T16:17:59;8.48;;;1.90;;
55692;SDS011;41590;53.366;5.212;2022-07-29T16:20:26;5.55;;;1.52;;
55692;SDS011;41590;53.366;5.212;2022-07-29T16:25:59;8.80;;;2.13;;
55692;SDS011;41590;53.366;5.212;2022-07-29T16:28:28;11.45;;;1.98;;
55692;SDS011;41590;53.366;5.212;2022-07-29T16:31:02;6.93;;;1.88;;
55692;SDS011;41590;53.366;5.212;2022-07-29T16:33:37;7.47;;;2.17;;
55692;SDS011;41590;53.366;5.212;2022-07-29T16:36:03;6.70;;;1.92;;
55692;SDS011;41590;53.366;5.212;2022-07-29T16:38:29;6.68;;;1.50;;
55692;SDS011;41590;53.366;5.212;2022-07-29T16:41:04;8.52;;;1.60;;
55692;SDS011;41590;53.366;5.212;2022-07-29T16:43:30;7.93;;;2.33;;
55692;SDS011;41590;53.366;5.212;2022-07-29T16:45:56;8.80;;;1.67;;
55692;SDS011;41590;53.366;5.212;2022-07-29T16:48:21;7.70;;;1.88;;
55692;SDS011;41590;53.366;5.212;2022-07-29T16:53:18;5.10;;;1.50;;
55692;SDS011;41590;53.366;5.212;2022-07-29T16:55:50;8.65;;;2.30;;
55692;SDS011;41590;53.366;5.212;2022-07-29T16:58:16;7.93;;;1.90;;
55692;SDS011;41590;53.366;5.212;2022-07-29T17:00:43;6.25;;;1.60;;
55692;SDS011;41590;53.366;5.212;2022-07-29T17:06:37;5.32;;;2.25;;
55692;SDS011;41590;53.366;5.212;2022-07-29T17:09:07;10.13;;;2.38;;
55692;SDS011;41590;53.366;5.212;2022-07-29T17:11:41;7.95;;;3.10;;
55692;SDS011;41590;53.366;5.212;2022-07-29T17:14:07;11.32;;;2.40;;
55692;SDS011;41590;53.366;5.212;2022-07-29T17:16:34;5.95;;;2.00;;
55692;SDS011;41590;53.366;5.212;2022-07-29T17:19:00;7.78;;;1.48;;
55692;SDS011;41590;53.366;5.212;2022-07-29T17:21:26;11.13;;;2.40;;
55692;SDS011;41590;53.366;5.212;2022-07-29T17:23:54;8.50;;;1.67;;
55692;SDS011;41590;53.366;5.212;2022-07-29T17:26:20;5.43;;;1.67;;
55692;SDS011;41590;53.366;5.212;2022-07-29T17:28:46;5.43;;;1.67;;
55692;SDS011;41590;53.366;5.212;2022-07-29T17:31:13;5.38;;;1.90;;
55692;SDS011;41590;53.366;5.212;2022-07-29T17:36:11;9.00;;;1.65;;
55692;SDS011;41590;53.366;5.212;2022-07-29T17:38:52;8.32;;;2.08;;
55692;SDS011;41590;53.366;5.212;2022-07-29T17:41:29;8.13;;;1.83;;
55692;SDS011;41590;53.366;5.212;2022-07-29T17:43:55;6.88;;;1.92;;
55692;SDS011;41590;53.366;5.212;2022-07-29T17:46:21;11.70;;;2.10;;
55692;SDS011;41590;53.366;5.212;2022-07-29T17:48:50;8.57;;;1.65;;
55692;SDS011;41590;53.366;5.212;2022-07-29T17:51:22;9.25;;;1.88;;
55692;SDS011;41590;53.366;5.212;2022-07-29T17:53:49;10.20;;;1.90;;
55692;SDS011;41590;53.366;5.212;2022-07-29T17:56:32;6.35;;;1.52;;
55692;SDS011;41590;53.366;5.212;2022-07-29T17:58:58;7.43;;;2.08;;
55692;SDS011;41590;53.366;5.212;2022-07-29T18:01:30;6.07;;;1.60;;
55692;SDS011;41590;53.366;5.212;2022-07-29T18:03:57;7.30;;;1.77;;
55692;SDS011;41590;53.366;5.212;2022-07-29T18:06:22;8.40;;;1.90;;
55692;SDS011;41590;53.366;5.212;2022-07-29T18:11:57;8.68;;;2.13;;
55692;SDS011;41590;53.366;5.212;2022-07-29T18:14:23;3.97;;;1.73;;
55692;SDS011;41590;53.366;5.212;2022-07-29T18:16:53;5.13;;;1.58;;
55692;SDS011;41590;53.366;5.212;2022-07-29T18:19:25;7.65;;;2.15;;
55692;SDS011;41590;53.366;5.212;2022-07-29T18:21:50;8.07;;;2.10;;
55692;SDS011;41590;53.366;5.212;2022-07-29T18:24:19;5.10;;;1.63;;
55692;SDS011;41590;53.366;5.212;2022-07-29T18:26:45;8.32;;;2.13;;
55692;SDS011;41590;53.366;5.212;2022-07-29T18:29:11;5.03;;;1.95;;
55692;SDS011;41590;53.366;5.212;2022-07-29T18:31:40;6.75;;;1.77;;
55692;SDS011;41590;53.366;5.212;2022-07-29T18:34:14;9.55;;;2.35;;
55692;SDS011;41590;53.366;5.212;2022-07-29T18:41:56;9.90;;;1.95;;
55692;SDS011;41590;53.366;5.212;2022-07-29T18:44:27;8.48;;;1.75;;
55692;SDS011;41590;53.366;5.212;2022-07-29T18:46:53;5.68;;;1.70;;
55692;SDS011;41590;53.366;5.212;2022-07-29T18:49:20;5.50;;;1.73;;
55692;SDS011;41590;53.366;5.212;2022-07-29T18:51:55;7.80;;;1.88;;
55692;SDS011;41590;53.366;5.212;2022-07-29T18:54:22;9.82;;;2.40;;
55692;SDS011;41590;53.366;5.212;2022-07-29T18:56:48;6.93;;;2.00;;
55692;SDS011;41590;53.366;5.212;2022-07-29T18:59:14;6.57;;;2.00;;
55692;SDS011;41590;53.366;5.212;2022-07-29T19:01:41;9.13;;;2.35;;
55692;SDS011;41590;53.366;5.212;2022-07-29T19:04:10;10.77;;;2.10;;
55692;SDS011;41590;53.366;5.212;2022-07-29T19:06:40;7.13;;;2.15;;
55692;SDS011;41590;53.366;5.212;2022-07-29T19:09:06;8.82;;;2.08;;
55692;SDS011;41590;53.366;5.212;2022-07-29T19:11:36;9.20;;;2.47;;
55692;SDS011;41590;53.366;5.212;2022-07-29T19:14:03;5.55;;;2.25;;
55692;SDS011;41590;53.366;5.212;2022-07-29T19:19:08;6.13;;;1.95;;
55692;SDS011;41590;53.366;5.212;2022-07-29T19:21:35;8.75;;;2.00;;
55692;SDS011;41590;53.366;5.212;2022-07-29T19:24:07;10.70;;;2.55;;